Time;durP1;ratioP1;P1;durP2;ratioP2;P2;SDS_P1;SDS_P2;PMS_P1;PMS_P2;Temp;Humidity;BMP_temperature;BMP_pressure;BME280_temperature;BME280_humidity;BME280_pressure;Samples;Min_cycle;Max_cycle;Signal;HPM_P1;HPM_P2
2021/05/24 00:00:35;;;;;;;9.57;8.67;;;10.40;99.90;;;;;;4983554;28;20414;-86
2021/05/24 00:03:01;;;;;;;11.50;10.50;;;10.40;99.90;;;;;;4968786;28;20756;-87
2021/05/24 00:05:31;;;;;;;14.90;13.40;;;10.40;99.90;;;;;;4964581;29;20783;-84
2021/05/24 00:08:03;;;;;;;14.97;13.53;;;10.40;99.90;;;;;;4965639;28;20453;-87
2021/05/24 00:10:49;;;;;;;6.47;5.93;;;10.30;99.90;;;;;;4985193;28;20441;-85
2021/05/24 00:14:17;;;;;;;5.77;5.20;;;10.20;99.90;;;;;;4980442;28;20393;-85
2021/05/24 00:16:26;;;;;;;5.43;5.03;;;10.20;99.90;;;;;;4971643;28;20464;-87
2021/05/24 00:18:55;;;;;;;6.60;6.07;;;10.20;99.90;;;;;;4979226;29;20440;-86
2021/05/24 00:21:34;;;;;;;6.67;6.07;;;10.10;99.90;;;;;;4970557;29;20779;-84
2021/05/24 00:24:12;;;;;;;7.00;6.40;;;10.20;99.90;;;;;;4966433;29;20421;-87
2021/05/24 00:26:52;;;;;;;6.50;6.00;;;10.20;99.90;;;;;;4978437;28;20453;-86
2021/05/24 00:29:27;;;;;;;10.43;9.40;;;10.20;99.90;;;;;;4965708;28;20414;-86
2021/05/24 00:31:55;;;;;;;8.47;7.73;;;10.10;99.90;;;;;;4982389;28;20447;-85
2021/05/24 00:34:21;;;;;;;6.73;6.13;;;10.10;99.90;;;;;;4948755;29;20525;-85
2021/05/24 00:36:49;;;;;;;6.67;5.97;;;10.20;99.90;;;;;;4979972;28;20476;-86
2021/05/24 00:39:21;;;;;;;7.37;6.70;;;10.20;99.90;;;;;;4964675;28;20227;-86
2021/05/24 00:41:50;;;;;;;6.10;5.50;;;10.20;99.90;;;;;;4963791;29;20469;-86
2021/05/24 00:44:32;;;;;;;5.20;4.80;;;10.10;99.90;;;;;;4967476;29;20410;-85
2021/05/24 00:46:58;;;;;;;4.13;3.83;;;10.00;99.90;;;;;;4963975;28;20768;-86
2021/05/24 00:49:31;;;;;;;7.40;5.60;;;10.00;99.90;;;;;;4982052;28;20457;-86
2021/05/24 00:52:42;;;;;;;5.30;3.93;;;10.00;99.90;;;;;;4963963;29;20190;-85
2021/05/24 00:55:12;;;;;;;5.43;5.00;;;9.90;99.90;;;;;;4980075;28;20456;-86
2021/05/24 00:57:39;;;;;;;6.33;5.60;;;9.80;99.90;;;;;;4963285;28;20481;-85
2021/05/24 01:00:08;;;;;;;6.93;6.23;;;9.70;99.90;;;;;;4963698;29;20505;-86
2021/05/24 01:02:39;;;;;;;7.60;6.90;;;9.60;99.90;;;;;;4961966;29;20410;-86
2021/05/24 01:05:09;;;;;;;7.63;6.83;;;9.60;99.90;;;;;;4963144;29;20410;-87
2021/05/24 01:07:43;;;;;;;7.77;6.53;;;9.50;99.90;;;;;;4962836;28;20441;-87
2021/05/24 01:10:56;;;;;;;5.80;5.40;;;9.40;99.90;;;;;;4966694;28;20879;-86
2021/05/24 01:13:32;;;;;;;6.90;6.30;;;9.30;99.90;;;;;;4932086;29;20468;-85
2021/05/24 01:16:20;;;;;;;6.47;5.87;;;9.30;99.90;;;;;;4932441;29;20437;-85
2021/05/24 01:19:30;;;;;;;6.07;4.73;;;9.20;99.90;;;;;;4917501;29;20459;-86
2021/05/24 01:21:59;;;;;;;5.83;5.33;;;9.20;99.90;;;;;;4911440;28;20416;-86
2021/05/24 01:24:37;;;;;;;6.20;5.70;;;9.20;99.90;;;;;;4964332;29;20408;-86
2021/05/24 01:27:03;;;;;;;6.13;5.50;;;9.10;99.90;;;;;;4977623;28;20797;-86
2021/05/24 01:29:40;;;;;;;10.07;8.00;;;9.10;99.90;;;;;;4963891;28;20493;-86
2021/05/24 01:32:18;;;;;;;22.77;19.23;;;9.10;99.90;;;;;;4969356;28;20403;-86
2021/05/24 01:35:02;;;;;;;8.27;7.03;;;9.00;99.90;;;;;;4965520;29;20413;-86
2021/05/24 01:37:44;;;;;;;3.90;3.70;;;9.00;99.90;;;;;;4975595;28;20469;-86
2021/05/24 01:40:25;;;;;;;6.27;5.83;;;9.00;99.90;;;;;;4952804;29;20425;-84
2021/05/24 01:42:59;;;;;;;4.47;4.17;;;9.10;99.90;;;;;;4951573;28;20420;-87
2021/05/24 01:45:34;;;;;;;5.60;5.20;;;9.10;99.90;;;;;;4965346;29;20417;-86
2021/05/24 01:48:48;;;;;;;6.07;5.53;;;9.10;99.90;;;;;;4966782;29;20405;-85
2021/05/24 01:51:17;;;;;;;4.53;4.10;;;9.10;99.90;;;;;;4968806;28;20413;-86
2021/05/24 01:53:43;;;;;;;5.63;4.97;;;9.10;99.90;;;;;;4971170;28;20393;-85
2021/05/24 01:56:19;;;;;;;5.33;4.33;;;9.10;99.90;;;;;;4986717;28;20480;-85
2021/05/24 01:58:45;;;;;;;5.63;5.13;;;9.10;99.90;;;;;;4984963;28;20170;-85
2021/05/24 02:01:14;;;;;;;4.57;4.20;;;9.10;99.90;;;;;;4964621;28;20417;-83
2021/05/24 02:03:51;;;;;;;5.43;4.27;;;9.10;99.90;;;;;;4978701;28;20165;-85
2021/05/24 02:06:22;;;;;;;5.13;4.60;;;9.00;99.90;;;;;;4964035;28;20426;-85
2021/05/24 02:09:14;;;;;;;4.80;4.40;;;9.00;99.90;;;;;;4962089;29;20423;-85
2021/05/24 02:11:49;;;;;;;5.10;4.70;;;9.00;99.90;;;;;;4963348;29;20456;-85
2021/05/24 02:14:15;;;;;;;11.10;4.17;;;9.00;99.90;;;;;;4975555;28;20405;-84
2021/05/24 02:16:43;;;;;;;6.20;5.00;;;9.00;99.90;;;;;;4976419;28;20442;-86
2021/05/24 02:19:21;;;;;;;6.17;5.60;;;8.90;99.90;;;;;;4976876;28;20485;-86
2021/05/24 02:22:05;;;;;;;4.87;4.47;;;8.90;99.90;;;;;;4976067;29;20418;-86
2021/05/24 02:24:33;;;;;;;5.30;4.90;;;8.90;99.90;;;;;;4992660;28;20498;-86
2021/05/24 02:27:18;;;;;;;5.57;5.17;;;8.90;99.90;;;;;;4991837;28;20441;-86
2021/05/24 02:30:35;;;;;;;;;;;;;;;;;;;;;
2021/05/24 02:33:26;;;;;;;3.97;3.67;;;8.80;99.90;;;;;;4972760;28;20401;-86
2021/05/24 02:35:59;;;;;;;4.47;4.10;;;8.80;99.90;;;;;;4970384;28;20448;-85
2021/05/24 02:38:29;;;;;;;5.77;5.20;;;8.80;99.90;;;;;;4967506;29;20448;-85
2021/05/24 02:41:10;;;;;;;5.20;4.80;;;8.80;99.90;;;;;;4967886;29;20432;-86
2021/05/24 02:43:46;;;;;;;4.63;4.33;;;8.80;99.90;;;;;;4967126;29;20378;-86
2021/05/24 02:46:25;;;;;;;5.20;4.80;;;8.80;99.90;;;;;;4969574;28;20430;-87
2021/05/24 02:48:51;;;;;;;4.80;4.40;;;8.70;99.90;;;;;;4966913;29;20420;-85
2021/05/24 02:51:19;;;;;;;5.03;4.70;;;8.70;99.90;;;;;;4965726;28;20407;-86
2021/05/24 02:53:48;;;;;;;6.13;5.20;;;8.70;99.90;;;;;;4967558;29;20428;-85
2021/05/24 02:56:21;;;;;;;5.30;4.90;;;8.70;99.90;;;;;;4983489;28;20465;-86
2021/05/24 02:58:53;;;;;;;4.73;4.33;;;8.70;99.90;;;;;;4967899;29;20421;-86
2021/05/24 03:01:26;;;;;;;5.53;5.03;;;8.70;99.90;;;;;;4970046;28;20413;-86
2021/05/24 03:03:57;;;;;;;6.03;5.10;;;8.60;99.90;;;;;;4971638;29;20421;-84
2021/05/24 03:06:26;;;;;;;5.10;4.77;;;8.60;99.90;;;;;;5006127;23;20462;-86
2021/05/24 03:08:55;;;;;;;5.13;4.73;;;8.60;99.90;;;;;;4952843;29;20406;-86
2021/05/24 03:11:24;;;;;;;5.63;5.13;;;8.60;99.90;;;;;;4976263;28;20528;-86
2021/05/24 03:13:59;;;;;;;5.03;4.60;;;8.60;99.90;;;;;;4960369;28;20418;-86
2021/05/24 03:16:38;;;;;;;5.20;4.80;;;8.70;99.90;;;;;;4945039;29;20470;-86
2021/05/24 03:19:07;;;;;;;5.87;5.47;;;8.70;99.90;;;;;;4933375;29;20414;-87
2021/05/24 03:21:35;;;;;;;6.10;5.50;;;8.70;99.90;;;;;;4965107;29;20415;-88
2021/05/24 03:24:09;;;;;;;5.83;4.93;;;8.70;99.90;;;;;;4949706;29;20423;-87
2021/05/24 03:26:56;;;;;;;5.20;4.77;;;8.70;99.90;;;;;;4949851;29;20439;-87
2021/05/24 03:29:24;;;;;;;5.50;5.00;;;8.80;99.90;;;;;;4950729;29;20407;-85
2021/05/24 03:32:06;;;;;;;4.87;4.43;;;8.80;99.90;;;;;;4934141;29;20399;-87
2021/05/24 03:34:51;;;;;;;5.63;5.10;;;8.80;99.90;;;;;;4934392;29;20945;-87
2021/05/24 03:37:28;;;;;;;5.70;5.20;;;8.80;99.90;;;;;;4953110;29;20486;-87
2021/05/24 03:40:14;;;;;;;5.73;5.33;;;8.90;99.90;;;;;;4956347;29;20450;-86
2021/05/24 03:42:43;;;;;;;5.70;5.20;;;8.90;99.90;;;;;;4955959;29;20415;-86
2021/05/24 03:45:18;;;;;;;5.80;5.30;;;8.90;99.90;;;;;;4953663;29;20419;-87
2021/05/24 03:47:52;;;;;;;6.10;5.63;;;9.00;99.90;;;;;;4949067;29;20446;-83
2021/05/24 03:50:31;;;;;;;10.23;5.40;;;9.00;99.90;;;;;;4949115;29;20410;-86
2021/05/24 03:53:15;;;;;;;4.50;4.20;;;9.10;99.90;;;;;;4949869;29;20407;-86
2021/05/24 03:55:52;;;;;;;4.47;4.13;;;9.20;99.90;;;;;;4936310;29;20407;-87
2021/05/24 03:58:23;;;;;;;5.37;4.97;;;9.30;99.90;;;;;;4956782;29;20407;-84
2021/05/24 04:00:52;;;;;;;6.90;5.50;;;9.40;99.90;;;;;;4947583;29;20459;-85
2021/05/24 04:03:19;;;;;;;5.00;4.60;;;9.40;99.90;;;;;;4944533;29;20214;-85
2021/05/24 04:06:00;;;;;;;6.13;5.60;;;9.50;99.90;;;;;;4945417;29;20417;-86
2021/05/24 04:08:41;;;;;;;5.10;4.70;;;9.60;99.90;;;;;;4946062;29;20446;-86
2021/05/24 04:11:14;;;;;;;4.53;4.23;;;9.80;99.90;;;;;;4940263;29;20446;-85
2021/05/24 04:14:02;;;;;;;5.60;4.47;;;10.40;99.90;;;;;;4943327;29;20496;-85
2021/05/24 04:16:31;;;;;;;4.87;4.57;;;12.20;99.90;;;;;;4942342;29;20466;-85
2021/05/24 04:19:09;;;;;;;5.30;4.30;;;14.10;99.90;;;;;;4941755;29;20434;-85
2021/05/24 04:21:44;;;;;;;4.80;4.10;;;16.60;99.90;;;;;;4959517;29;20406;-86
2021/05/24 04:24:26;;;;;;;4.93;3.50;;;18.80;99.90;;;;;;4940237;29;20406;-85
2021/05/24 04:27:00;;;;;;;4.63;3.33;;;20.50;99.90;;;;;;4939532;29;20478;-85
2021/05/24 04:29:38;;;;;;;3.33;3.13;;;21.80;99.90;;;;;;4955149;28;20433;-85
2021/05/24 04:32:30;;;;;;;4.10;3.10;;;21.70;99.90;;;;;;4922676;29;20465;-85
2021/05/24 04:35:23;;;;;;;3.27;3.07;;;22.90;99.90;;;;;;4941231;29;20418;-84
2021/05/24 04:39:02;;;;;;;3.70;3.50;;;23.00;99.90;;;;;;4936614;29;20513;-84
2021/05/24 04:41:45;;;;;;;3.03;2.80;;;24.20;99.90;;;;;;4931004;29;20426;-86
2021/05/24 04:44:24;;;;;;;3.17;2.87;;;24.80;99.90;;;;;;4938880;29;20414;-85
2021/05/24 04:46:54;;;;;;;3.00;2.80;;;25.40;99.90;;;;;;4922350;29;20470;-85
2021/05/24 04:49:20;;;;;;;2.73;2.53;;;25.90;99.90;;;;;;4924314;29;20422;-85
2021/05/24 04:52:32;;;;;;;3.10;2.90;;;26.10;99.90;;;;;;4955424;29;20395;-85
2021/05/24 04:55:37;;;;;;;2.87;2.67;;;26.40;99.30;;;;;;4908486;29;20495;-86
2021/05/24 04:58:19;;;;;;;2.87;2.67;;;26.60;98.20;;;;;;4922637;29;20455;-86
2021/05/24 05:00:48;;;;;;;7.60;2.70;;;26.40;97.80;;;;;;4902622;29;20853;-85
2021/05/24 05:03:33;;;;;;;2.63;2.53;;;27.30;96.90;;;;;;4902026;29;20487;-86
2021/05/24 05:06:42;;;;;;;2.63;2.43;;;27.40;96.00;;;;;;4936616;29;20466;-85
2021/05/24 05:09:43;;;;;;;2.47;2.30;;;27.50;95.80;;;;;;4921714;29;20430;-85
2021/05/24 05:12:32;;;;;;;3.93;3.63;;;28.20;95.10;;;;;;4939590;29;20482;-85
2021/05/24 05:15:07;;;;;;;2.50;2.30;;;27.70;94.90;;;;;;4938966;29;20433;-85
2021/05/24 05:18:09;;;;;;;;;;;;;;;;;;;;;
2021/05/24 05:20:52;;;;;;;3.53;3.17;;;28.20;94.00;;;;;;4943915;29;20847;-86
2021/05/24 05:23:40;;;;;;;4.20;2.10;;;28.40;93.50;;;;;;4961730;29;20429;-86
2021/05/24 05:26:35;;;;;;;2.53;2.03;;;28.50;93.10;;;;;;4944005;29;20438;-86
2021/05/24 05:29:49;;;;;;;2.70;2.50;;;28.80;92.90;;;;;;4936581;29;20406;-86
2021/05/24 05:32:50;;;;;;;;;;;;;;;;;;;;;
2021/05/24 05:36:03;;;;;;;2.57;2.37;;;29.20;92.30;;;;;;4880146;29;20521;-86
2021/05/24 05:39:24;;;;;;;4.00;3.43;;;29.30;92.10;;;;;;4866960;29;20413;-85
2021/05/24 05:42:34;;;;;;;1.97;1.77;;;29.60;91.70;;;;;;4881706;29;20481;-85
2021/05/24 05:49:20;;;;;;;;;;;;;;;;;;;;;
2021/05/24 05:52:25;;;;;;;1.70;1.60;;;30.20;90.70;;;;;;4943234;29;20486;-87
2021/05/24 05:55:14;;;;;;;2.90;1.83;;;29.70;90.90;;;;;;4944372;29;20418;-86
2021/05/24 05:57:43;;;;;;;3.67;3.40;;;30.40;90.40;;;;;;4940120;29;20426;-87
2021/05/24 06:00:09;;;;;;;2.53;2.33;;;30.80;90.30;;;;;;4939542;29;20409;-86
2021/05/24 06:02:41;;;;;;;2.17;1.87;;;30.10;90.20;;;;;;4923384;29;20422;-86
2021/05/24 06:05:17;;;;;;;1.87;1.73;;;30.50;90.10;;;;;;4939969;29;20414;-87
2021/05/24 06:07:46;;;;;;;2.50;2.03;;;30.40;89.20;;;;;;4938901;29;20509;-86
2021/05/24 06:11:01;;;;;;;2.23;2.03;;;30.30;90.00;;;;;;4937919;29;20426;-86
2021/05/24 06:14:04;;;;;;;1.40;1.30;;;30.00;89.50;;;;;;4842660;29;20178;-86
2021/05/24 06:16:46;;;;;;;3.00;2.80;;;30.30;88.60;;;;;;4937748;23;20499;-86
2021/05/24 06:19:28;;;;;;;2.30;1.83;;;30.10;88.60;;;;;;4957967;28;20532;-86
2021/05/24 06:22:43;;;;;;;;;;;;;;;;;;;;;
2021/05/24 06:25:41;;;;;;;4.43;1.80;;;30.10;88.20;;;;;;4966304;28;20417;-86
2021/05/24 06:35:27;;;;;;;;;;;;;;;;;;;;;
2021/05/24 06:41:46;;;;;;;1.60;1.10;;;28.50;90.60;;;;;;4904799;29;20487;-85
2021/05/24 06:53:33;;;;;;;;;;;;;;;;;;;;;
2021/05/24 07:04:32;;;;;;;4.67;2.47;;;26.50;93.60;;;;;;4803194;29;20422;-86
2021/05/24 07:11:29;;;;;;;3.17;1.97;;;25.60;94.80;;;;;;4787406;29;20447;-87
2021/05/24 07:42:38;;;;;;;3.70;2.70;;;19.30;99.90;;;;;;5825184;22;9903804;-88
2021/05/24 07:45:14;;;;;;;4.50;2.27;;;18.80;99.90;;;;;;6217037;23;20178;-87
2021/05/24 07:48:01;;;;;;;2.90;2.53;;;18.80;99.90;;;;;;6208855;23;20413;-90
2021/05/24 07:51:05;;;;;;;5.60;2.57;;;18.70;99.90;;;;;;6185719;23;20398;-89
2021/05/24 07:54:13;;;;;;;3.70;3.40;;;18.60;99.90;;;;;;6212253;23;20464;-89
2021/05/24 08:18:24;;;;;;;2.13;1.63;;;18.90;99.90;;;;;;6271357;23;20846;-89
2021/05/24 08:20:50;;;;;;;4.77;4.00;;;19.00;99.90;;;;;;6222693;23;20393;-88
2021/05/24 08:27:58;;;;;;;3.47;3.17;;;19.30;99.90;;;;;;6086654;23;20484;-90
2021/05/24 08:30:34;;;;;;;6.80;6.30;;;19.60;99.90;;;;;;6039272;23;20468;-90
2021/05/24 08:33:21;;;;;;;1.83;1.20;;;19.30;99.90;;;;;;6087542;23;20373;-89
2021/05/24 08:36:02;;;;;;;1.30;1.07;;;19.10;99.90;;;;;;6060553;23;20384;-86
2021/05/24 08:38:31;;;;;;;1.37;1.20;;;18.90;99.90;;;;;;6082523;23;20362;-88
2021/05/24 08:40:57;;;;;;;43.50;30.93;;;19.10;99.90;;;;;;6055693;23;20478;-87
2021/05/24 08:43:23;;;;;;;2.43;2.00;;;19.50;99.90;;;;;;6056607;23;20375;-89
2021/05/24 08:46:04;;;;;;;2.20;1.70;;;19.70;99.90;;;;;;6080791;23;20371;-89
2021/05/24 08:48:40;;;;;;;1.87;1.50;;;20.30;99.90;;;;;;6078660;23;20401;-89
2021/05/24 08:51:36;;;;;;;2.50;1.40;;;20.80;99.90;;;;;;6162586;22;20543;-88
2021/05/24 08:54:11;;;;;;;3.43;3.13;;;21.00;99.90;;;;;;6240509;23;20341;-86
2021/05/24 08:56:37;;;;;;;3.07;2.80;;;20.80;99.90;;;;;;6237967;23;20429;-87
2021/05/24 08:59:41;;;;;;;2.60;1.87;;;20.60;99.90;;;;;;6229370;23;20369;-87
2021/05/24 09:02:19;;;;;;;4.13;1.70;;;20.60;99.90;;;;;;6222222;23;20473;-87
2021/05/24 09:04:52;;;;;;;5.60;4.43;;;20.50;99.90;;;;;;6204263;23;20444;-86
2021/05/24 09:07:25;;;;;;;5.00;2.30;;;20.30;99.90;;;;;;6202983;23;20424;-86
2021/05/24 09:10:21;;;;;;;2.43;1.93;;;20.50;99.90;;;;;;6227359;23;20381;-87
2021/05/24 09:12:54;;;;;;;2.93;2.50;;;20.70;99.90;;;;;;6197618;23;20868;-87
2021/05/24 09:15:22;;;;;;;3.77;3.10;;;20.90;99.90;;;;;;6197626;23;20466;-87
2021/05/24 09:18:03;;;;;;;7.03;1.60;;;21.10;99.90;;;;;;6198134;23;20417;-87
2021/05/24 09:20:44;;;;;;;1.50;1.23;;;21.00;99.90;;;;;;6175067;23;20423;-87
2021/05/24 09:23:29;;;;;;;1.97;1.27;;;20.90;99.90;;;;;;6200237;23;20447;-87
2021/05/24 09:26:13;;;;;;;4.70;1.10;;;20.50;99.90;;;;;;6199636;23;20363;-88
2021/05/24 09:32:33;;;;;;;2.03;1.00;;;20.80;99.90;;;;;;6107952;23;20732;-88
2021/05/24 09:35:56;;;;;;;2.87;1.73;;;21.40;99.50;;;;;;6107438;23;20385;-88
2021/05/24 09:38:27;;;;;;;2.43;1.30;;;21.60;99.10;;;;;;6198566;23;20372;-89
2021/05/24 09:44:30;;;;;;;3.90;3.50;;;21.30;99.60;;;;;;6109959;23;20373;-87
2021/05/24 09:47:55;;;;;;;2.73;1.30;;;21.30;99.50;;;;;;6197310;23;20386;-89
2021/05/24 09:50:33;;;;;;;1.40;1.30;;;21.70;98.90;;;;;;6025270;23;20406;-88
2021/05/24 09:53:03;;;;;;;2.77;2.57;;;21.80;98.90;;;;;;6026062;23;20355;-86
2021/05/24 09:56:05;;;;;;;3.80;1.30;;;21.60;99.00;;;;;;6030659;23;20395;-87
2021/05/24 09:58:40;;;;;;;1.80;1.63;;;21.50;99.60;;;;;;5981741;23;20403;-88
2021/05/24 10:02:07;;;;;;;3.57;2.60;;;21.60;99.30;;;;;;6041969;23;20400;-87
2021/05/24 10:05:04;;;;;;;2.27;1.97;;;21.50;99.10;;;;;;5997651;23;20410;-87
2021/05/24 10:07:33;;;;;;;2.27;2.07;;;21.70;99.00;;;;;;5995411;23;20420;-89
2021/05/24 10:13:19;;;;;;;1.57;1.47;;;21.50;99.50;;;;;;6047546;23;20738;-88
2021/05/24 10:16:10;;;;;;;4.77;4.37;;;21.40;99.40;;;;;;6107140;23;20429;-88
2021/05/24 10:19:12;;;;;;;2.33;1.50;;;21.70;99.70;;;;;;6078331;23;20409;-86
2021/05/24 10:22:33;;;;;;;;;;;;;;;;;;;;;
2021/05/24 10:29:02;;;;;;;4.10;1.23;;;22.50;97.30;;;;;;6181059;23;20434;-89
2021/05/24 10:36:06;;;;;;;;;;;;;;;;;;;;;
2021/05/24 10:39:21;;;;;;;2.23;1.57;;;22.40;96.10;;;;;;6107451;23;20827;-86
2021/05/24 10:41:57;;;;;;;3.57;2.57;;;22.30;96.30;;;;;;6091437;23;20407;-87
2021/05/24 10:45:43;;;;;;;;;;;;;;;;;;;;;
2021/05/24 10:52:45;;;;;;;1.60;1.10;;;22.10;96.10;;;;;;6202965;23;20395;-88
2021/05/24 10:56:22;;;;;;;3.20;2.03;;;22.50;96.00;;;;;;6196352;23;20381;-88
2021/05/24 11:03:45;;;;;;;;;;;;;;;;;;;;;
2021/05/24 11:27:51;;;;;;;1.80;1.17;;;22.00;97.30;;;;;;6259620;22;20482;-88
2021/05/24 11:38:41;;;;;;;3.30;2.33;;;22.40;97.70;;;;;;6225304;23;20484;-88
2021/05/24 11:41:09;;;;;;;3.47;2.90;;;22.10;98.60;;;;;;6191067;23;20405;-85
2021/05/24 11:43:52;;;;;;;1.80;1.60;;;21.70;98.70;;;;;;6180220;23;20367;-86
2021/05/24 11:46:51;;;;;;;2.33;1.97;;;21.50;98.70;;;;;;6209247;23;20350;-86
2021/05/24 11:49:57;;;;;;;2.80;2.10;;;21.60;98.40;;;;;;6183820;23;20383;-86
2021/05/24 11:52:37;;;;;;;1.23;0.93;;;21.70;98.10;;;;;;6118154;23;20372;-86
2021/05/24 11:55:08;;;;;;;4.23;1.77;;;21.40;98.00;;;;;;6157496;23;20433;-87
2021/05/24 11:57:59;;;;;;;1.87;1.20;;;21.70;97.50;;;;;;6178125;23;20378;-88
2021/05/24 12:01:01;;;;;;;1.43;1.10;;;21.90;96.70;;;;;;6175838;23;20449;-87
2021/05/24 12:04:04;;;;;;;2.37;2.17;;;22.30;96.60;;;;;;6137442;23;20379;-88
2021/05/24 12:06:52;;;;;;;3.83;1.80;;;22.30;96.50;;;;;;6149103;23;20593;-87
2021/05/24 12:09:53;;;;;;;2.53;2.00;;;22.20;97.00;;;;;;6175256;23;20393;-87
2021/05/24 12:12:46;;;;;;;2.17;1.97;;;22.20;96.70;;;;;;6175728;23;20367;-87
2021/05/24 12:15:33;;;;;;;4.87;1.83;;;22.30;97.30;;;;;;6176446;23;20365;-86
2021/05/24 12:19:30;;;;;;;3.40;1.30;;;22.40;97.00;;;;;;6178458;23;20405;-88
2021/05/24 12:22:04;;;;;;;3.00;1.23;;;22.70;96.40;;;;;;6200572;23;20417;-87
2021/05/24 12:24:58;;;;;;;3.63;3.03;;;22.50;96.40;;;;;;6201070;23;20335;-88
2021/05/24 12:27:29;;;;;;;1.23;1.10;;;22.60;96.70;;;;;;6202394;23;20398;-87
2021/05/24 12:33:07;;;;;;;3.03;2.10;;;22.60;96.10;;;;;;6222944;22;20466;-85
2021/05/24 12:39:54;;;;;;;5.77;1.73;;;22.40;96.60;;;;;;6108178;23;20392;-87
2021/05/24 12:50:50;;;;;;;;;;;;;;;;;;;;;
2021/05/24 12:54:36;;;;;;;;;;;;;;;;;;;;;
2021/05/24 13:02:03;;;;;;;1.60;1.00;;;21.50;98.10;;;;;;6073102;23;20416;-86
2021/05/24 13:09:01;;;;;;;1.40;1.10;;;21.40;97.10;;;;;;5984326;24;20448;-85
2021/05/24 13:12:14;;;;;;;2.50;1.47;;;21.50;97.10;;;;;;5970228;24;20467;-87
2021/05/24 13:15:16;;;;;;;1.73;1.40;;;21.70;97.20;;;;;;5955309;23;20387;-87
2021/05/24 13:38:17;;;;;;;;;;;;;;;;;;;;;
2021/05/24 13:50:26;;;;;;;;;;;;;;;;;;;;;
2021/05/24 14:01:13;;;;;;;;;;;;;;;;;;;;;
2021/05/24 14:04:31;;;;;;;;;;;;;;;;;;;;;
2021/05/24 14:07:40;;;;;;;2.80;1.80;;;22.80;96.10;;;;;;6046654;23;20754;-86
2021/05/24 14:25:50;;;;;;;2.30;1.53;;;23.00;95.30;;;;;;6039094;23;20381;-86
2021/05/24 14:29:43;;;;;;;2.50;1.77;;;23.10;95.30;;;;;;6195919;23;20426;-86
2021/05/24 14:33:13;;;;;;;2.40;2.13;;;23.00;95.50;;;;;;6209028;23;20924;-87
2021/05/24 14:36:46;;;;;;;5.13;2.00;;;23.10;95.30;;;;;;6206974;23;20381;-87
2021/05/24 14:39:50;;;;;;;1.73;1.50;;;23.10;95.40;;;;;;6156873;23;20376;-84
2021/05/24 14:43:02;;;;;;;2.00;1.80;;;23.20;95.60;;;;;;6180808;23;20433;-86
2021/05/24 15:17:10;;;;;;;2.53;1.37;;;24.00;94.40;;;;;;6226692;23;20366;-87
2021/05/24 15:24:26;;;;;;;1.93;1.67;;;23.10;95.00;;;;;;6047558;23;20364;-87
2021/05/24 15:28:08;;;;;;;;;;;;;;;;;;;;;
2021/05/24 15:37:09;;;;;;;;;;;;;;;;;;;;;
2021/05/24 15:40:45;;;;;;;28.97;22.40;;;22.00;96.10;;;;;;6253445;23;20914;-87
2021/05/24 15:50:51;;;;;;;;;;;;;;;;;;;;;
2021/05/24 15:58:25;;;;;;;;;;;;;;;;;;;;;
2021/05/24 16:01:12;;;;;;;6.23;3.67;;;21.90;94.70;;;;;;6135842;23;20385;-86
2021/05/24 16:04:50;;;;;;;3.60;2.63;;;21.80;94.70;;;;;;6207496;23;20373;-87
2021/05/24 16:08:12;;;;;;;3.00;2.70;;;21.80;94.50;;;;;;6184733;23;20428;-88
2021/05/24 16:14:27;;;;;;;1.70;1.30;;;21.70;95.00;;;;;;6119867;23;20416;-87
2021/05/24 17:41:07;;;;;;;;;;;;;;;;;;;;;
2021/05/24 17:48:18;;;;;;;2.57;2.37;;;20.60;99.90;;;;;;6196717;23;20426;-87
2021/05/24 17:51:56;;;;;;;;;;;;;;;;;;;;;
2021/05/24 18:00:00;;;;;;;;;;;;;;;;;;;;;
2021/05/24 18:14:52;;;;;;;3.60;3.30;;;22.00;99.60;;;;;;6198322;23;20394;-86
2021/05/24 18:21:25;;;;;;;2.67;2.47;;;22.00;99.90;;;;;;6077435;23;20991;-87
2021/05/24 18:24:49;;;;;;;4.07;3.63;;;22.00;99.90;;;;;;6057167;23;20389;-87
2021/05/24 18:28:07;;;;;;;7.73;6.20;;;21.70;99.90;;;;;;6074933;23;20453;-85
2021/05/24 18:33:47;;;;;;;3.00;2.77;;;21.00;99.90;;;;;;6268418;22;20453;-86
2021/05/24 18:36:17;;;;;;;3.40;1.83;;;20.60;99.90;;;;;;6269985;22;20333;-87
2021/05/24 18:38:43;;;;;;;6.53;2.20;;;20.20;99.90;;;;;;6242161;23;20396;-85
2021/05/24 18:41:11;;;;;;;4.60;2.00;;;19.90;99.90;;;;;;6267375;23;20377;-85
2021/05/24 18:43:41;;;;;;;5.87;5.37;;;19.70;99.90;;;;;;6237980;23;20377;-87
2021/05/24 18:46:10;;;;;;;19.33;7.20;;;19.60;99.90;;;;;;6213921;23;20386;-87
2021/05/24 18:48:38;;;;;;;5.80;3.70;;;19.40;99.90;;;;;;6239699;22;20448;-87
2021/05/24 18:51:07;;;;;;;2.73;2.20;;;19.20;99.90;;;;;;6237482;23;20435;-86
2021/05/24 18:53:34;;;;;;;5.87;2.97;;;19.10;99.90;;;;;;6238008;23;20454;-88
2021/05/24 18:56:00;;;;;;;6.83;6.10;;;19.00;99.90;;;;;;6238467;23;20408;-87
2021/05/24 18:58:26;;;;;;;4.70;3.87;;;18.80;99.90;;;;;;6240091;22;20369;-87
2021/05/24 19:01:00;;;;;;;5.00;3.53;;;18.80;99.90;;;;;;6239230;23;20973;-88
2021/05/24 19:03:31;;;;;;;5.83;1.90;;;18.70;99.90;;;;;;6241652;22;20381;-88
2021/05/24 19:06:10;;;;;;;3.60;2.47;;;18.60;99.90;;;;;;6242116;22;20421;-87
2021/05/24 19:09:00;;;;;;;4.20;3.47;;;18.50;99.90;;;;;;6242020;22;20427;-87
2021/05/24 19:11:28;;;;;;;16.20;9.00;;;18.40;99.90;;;;;;6239888;22;20377;-89
2021/05/24 19:14:04;;;;;;;3.90;2.60;;;18.30;99.90;;;;;;6239718;23;20335;-88
2021/05/24 19:16:38;;;;;;;4.30;3.30;;;18.20;99.90;;;;;;6214657;23;20396;-87
2021/05/24 19:19:04;;;;;;;2.90;2.70;;;18.20;99.90;;;;;;6262637;23;20366;-88
2021/05/24 19:21:31;;;;;;;3.03;2.73;;;18.10;99.90;;;;;;6239895;23;20382;-87
2021/05/24 19:23:58;;;;;;;20.40;18.40;;;18.00;99.90;;;;;;6239094;23;20435;-86
2021/05/24 19:26:31;;;;;;;12.90;11.70;;;17.90;99.90;;;;;;6235372;23;20442;-85
2021/05/24 19:29:02;;;;;;;4.57;4.17;;;17.90;99.90;;;;;;6236572;23;20421;-85
2021/05/24 19:31:28;;;;;;;3.77;2.97;;;17.80;99.90;;;;;;6235804;23;20408;-87
2021/05/24 19:33:54;;;;;;;4.27;2.97;;;17.80;99.90;;;;;;6237779;23;20350;-86
2021/05/24 19:36:21;;;;;;;4.80;3.10;;;17.70;99.90;;;;;;6238898;23;20394;-87
2021/05/24 19:38:51;;;;;;;4.43;4.03;;;17.70;99.90;;;;;;6212287;23;20366;-87
2021/05/24 19:41:18;;;;;;;9.07;4.13;;;17.70;99.90;;;;;;6239888;23;20376;-87
2021/05/24 19:43:44;;;;;;;9.53;7.90;;;17.70;99.90;;;;;;6189845;23;20389;-87
2021/05/24 19:46:13;;;;;;;3.77;3.40;;;17.70;99.90;;;;;;6215066;23;20465;-87
2021/05/24 19:49:34;;;;;;;5.40;3.27;;;17.60;99.90;;;;;;6242484;22;20174;-87
2021/05/24 20:06:56;;;;;;;9.10;2.87;;;17.30;99.90;;;;;;6239241;23;20390;-87
2021/05/24 20:24:29;;;;;;;6.17;3.47;;;17.40;99.90;;;;;;6239275;22;20460;-88
2021/05/24 20:26:55;;;;;;;5.70;2.27;;;17.40;99.90;;;;;;6212246;23;20374;-86
2021/05/24 20:29:23;;;;;;;10.40;7.17;;;17.40;99.90;;;;;;6241043;23;20401;-86
2021/05/24 20:31:49;;;;;;;4.00;3.70;;;17.40;99.90;;;;;;6215839;23;20166;-87
2021/05/24 20:34:16;;;;;;;6.23;5.57;;;17.40;99.90;;;;;;6242393;22;20450;-86
2021/05/24 20:36:42;;;;;;;5.73;4.70;;;17.50;99.90;;;;;;6241718;23;20381;-86
2021/05/24 20:39:14;;;;;;;6.43;3.80;;;17.40;99.90;;;;;;6240271;23;20366;-87
2021/05/24 20:41:40;;;;;;;8.57;4.87;;;17.40;99.90;;;;;;6238338;23;20397;-86
2021/05/24 20:44:07;;;;;;;7.30;6.70;;;17.40;99.90;;;;;;6265858;23;20405;-87
2021/05/24 20:46:33;;;;;;;3.13;2.87;;;17.40;99.90;;;;;;6237731;23;20376;-86
2021/05/24 20:48:59;;;;;;;3.20;3.00;;;17.50;99.90;;;;;;6233512;23;20429;-87
2021/05/24 20:51:28;;;;;;;7.03;2.40;;;17.50;99.90;;;;;;6236060;23;20641;-87
2021/05/24 20:53:54;;;;;;;5.50;4.30;;;17.50;99.90;;;;;;6210364;23;20404;-87
2021/05/24 20:56:20;;;;;;;4.73;3.60;;;17.50;99.90;;;;;;6209892;23;20402;-87
2021/05/24 20:58:52;;;;;;;4.67;2.60;;;17.50;99.90;;;;;;6234504;22;20157;-85
2021/05/24 21:01:21;;;;;;;7.43;6.13;;;17.40;99.90;;;;;;6210671;23;20373;-87
2021/05/24 21:03:48;;;;;;;10.30;9.30;;;17.40;99.90;;;;;;6233819;23;20374;-87
2021/05/24 21:06:17;;;;;;;3.77;3.10;;;17.40;99.90;;;;;;6236172;23;20370;-85
2021/05/24 21:08:44;;;;;;;3.60;2.80;;;17.40;99.90;;;;;;6235660;23;20421;-85
2021/05/24 21:11:09;;;;;;;7.70;3.87;;;17.30;99.90;;;;;;6235138;23;20369;-87
2021/05/24 21:13:36;;;;;;;5.60;5.10;;;17.30;99.90;;;;;;6233612;23;20373;-87
2021/05/24 21:16:01;;;;;;;5.50;3.50;;;17.40;99.90;;;;;;6208479;23;20175;-87
2021/05/24 21:18:27;;;;;;;3.13;2.83;;;17.40;99.90;;;;;;6233457;23;20393;-88
2021/05/24 21:20:53;;;;;;;4.43;3.20;;;17.40;99.90;;;;;;6235914;23;20177;-86
2021/05/24 21:23:19;;;;;;;8.23;3.20;;;17.40;99.90;;;;;;6233215;23;20178;-87
2021/05/24 21:25:45;;;;;;;7.63;6.83;;;17.40;99.90;;;;;;6234364;23;20157;-86
2021/05/24 21:28:11;;;;;;;5.10;2.80;;;17.30;99.90;;;;;;6260131;23;20456;-85
2021/05/24 21:30:39;;;;;;;2.30;2.10;;;17.30;99.90;;;;;;6238287;23;20138;-86
2021/05/24 21:33:22;;;;;;;4.40;3.40;;;17.30;99.90;;;;;;6233377;23;20903;-87
2021/05/24 21:35:50;;;;;;;4.50;3.10;;;17.20;99.90;;;;;;6233987;23;20437;-87
2021/05/24 21:38:16;;;;;;;2.67;2.20;;;17.20;99.90;;;;;;6232927;23;20382;-86
2021/05/24 21:40:48;;;;;;;2.73;2.43;;;17.20;99.90;;;;;;6234323;23;20389;-86
2021/05/24 21:43:15;;;;;;;3.60;2.57;;;17.20;99.90;;;;;;6234168;23;20492;-86